Time;durP1;ratioP1;P1;durP2;ratioP2;P2;SDS_P1;SDS_P2;PMS_P1;PMS_P2;Temp;Humidity;BMP_temperature;BMP_pressure;BME280_temperature;BME280_humidity;BME280_pressure;Samples;Min_cycle;Max_cycle;Signal;HPM_P1;HPM_P2
2022/02/22 00:02:14;;;;;;;24.88;5.50;;;;;;;4.93;100.00;67323.34;5014745;28;20050;-85
2022/02/22 00:04:43;;;;;;;29.15;6.35;;;;;;;4.90;100.00;67319.94;5012450;28;20061;-89
2022/02/22 00:07:10;;;;;;;29.35;6.47;;;;;;;4.90;100.00;67323.16;5024742;28;20133;-87
2022/02/22 00:09:35;;;;;;;29.55;7.55;;;;;;;;;;5019009;28;20053;-86
2022/02/22 00:12:00;;;;;;;31.42;5.63;;;;;;;4.90;100.00;67319.94;5000763;28;20049;-87
2022/02/22 00:14:26;;;;;;;35.83;4.47;;;;;;;4.88;100.00;67320.31;5015953;28;20096;-90
2022/02/22 00:16:57;;;;;;;17.70;5.88;;;;;;;4.86;100.00;67316.00;5016009;28;20042;-88
2022/02/22 00:19:27;;;;;;;19.38;4.28;;;;;;;4.84;100.00;67316.38;5022578;28;20130;-87
2022/02/22 00:21:54;;;;;;;25.50;4.28;;;;;;;4.84;100.00;67313.75;4997065;28;20565;-91
2022/02/22 00:24:20;;;;;;;20.90;4.10;;;;;;;4.82;100.00;67305.63;5036539;28;20482;-88
2022/02/22 00:26:46;;;;;;;27.52;5.85;;;;;;;4.81;100.00;67309.78;5013729;28;20096;-90
2022/02/22 00:29:12;;;;;;;24.73;5.03;;;;;;;4.81;100.00;67304.53;5010298;28;20428;-89
2022/02/22 00:31:37;;;;;;;26.25;5.05;;;;;;;;;;5013213;28;20046;-88
2022/02/22 00:34:04;;;;;;;22.15;4.35;;;;;;;4.78;100.00;67301.13;5024987;28;20045;-87
2022/02/22 00:36:30;;;;;;;25.23;5.35;;;;;;;4.82;100.00;67311.47;5013258;28;20124;-89
2022/02/22 00:38:56;;;;;;;24.98;4.75;;;;;;;;;;5012599;28;20057;-89
2022/02/22 00:41:21;;;;;;;27.80;5.85;;;;;;;4.82;100.00;67310.91;5027748;28;20045;-90
2022/02/22 00:43:47;;;;;;;19.38;3.65;;;;;;;;;;5053108;28;20410;-86
2022/02/22 00:46:12;;;;;;;32.08;6.35;;;;;;;4.83;100.00;67312.03;5028250;28;20067;-90
2022/02/22 00:48:37;;;;;;;18.23;3.58;;;;;;;4.81;100.00;67310.34;5040169;28;20045;-88
2022/02/22 00:51:02;;;;;;;26.10;5.00;;;;;;;;;;5003004;28;20044;-92
2022/02/22 00:53:28;;;;;;;25.60;5.10;;;;;;;4.78;100.00;67306.97;5028319;28;20053;-90
2022/02/22 00:55:53;;;;;;;25.15;5.43;;;;;;;4.77;100.00;67308.47;5039013;28;20041;-91
2022/02/22 00:58:19;;;;;;;20.92;4.85;;;;;;;;;;5032691;28;20129;-89
2022/02/22 01:00:44;;;;;;;24.02;4.25;;;;;;;4.72;100.00;67300.75;5048094;28;20037;-88
2022/02/22 01:03:17;;;;;;;24.95;4.88;;;;;;;;;;5034573;28;20140;-88
2022/02/22 01:05:46;;;;;;;21.02;4.00;;;;;;;4.64;100.00;67291.16;5029125;28;20053;-87
2022/02/22 01:08:12;;;;;;;21.70;4.45;;;;;;;4.63;100.00;67290.59;4976523;28;20129;-86
2022/02/22 01:10:38;;;;;;;30.52;6.47;;;;;;;4.61;100.00;67290.97;5014906;28;20091;-89
2022/02/22 01:13:03;;;;;;;21.08;4.25;;;;;;;4.60;100.00;67286.63;4996851;28;20049;-90
2022/02/22 01:15:30;;;;;;;27.50;5.43;;;;;;;4.61;100.00;67288.34;5017612;28;20052;-88
2022/02/22 01:17:58;;;;;;;31.65;5.93;;;;;;;4.55;100.00;67283.63;5009625;28;20042;-87
2022/02/22 01:20:23;;;;;;;27.58;4.50;;;;;;;;;;5038120;28;20595;-89
2022/02/22 01:22:56;;;;;;;26.90;5.10;;;;;;;4.46;100.00;67271.38;5022321;28;20120;-89
2022/02/22 01:25:22;;;;;;;30.42;5.40;;;;;;;4.41;100.00;67266.31;5028922;28;20041;-90
2022/02/22 01:27:56;;;;;;;26.33;5.47;;;;;;;4.41;100.00;67268.38;5013922;28;20141;-88
2022/02/22 01:30:21;;;;;;;23.70;5.75;;;;;;;;;;5009407;28;20038;-89
2022/02/22 01:32:47;;;;;;;30.05;5.45;;;;;;;4.37;100.00;67263.88;5012648;28;20626;-86
2022/02/22 01:35:12;;;;;;;28.95;4.97;;;;;;;;;;5028396;28;20064;-87
2022/02/22 01:37:39;;;;;;;22.38;4.82;;;;;;;4.35;100.00;67259.00;5027201;28;20491;-87
2022/02/22 01:40:12;;;;;;;21.52;5.25;;;;;;;4.34;100.00;67257.84;5019440;28;20049;-89
2022/02/22 01:42:38;;;;;;;28.52;5.18;;;;;;;4.29;100.00;67255.97;5009537;28;20133;-86
2022/02/22 01:45:05;;;;;;;31.75;6.25;;;;;;;4.29;100.00;67247.50;5030842;28;20129;-89
2022/02/22 01:47:32;;;;;;;33.78;6.65;;;;;;;4.27;100.00;67250.50;5027808;28;20084;-91
2022/02/22 01:49:57;;;;;;;27.30;5.20;;;;;;;;;;5013617;28;20056;-86
2022/02/22 01:52:26;;;;;;;22.85;6.30;;;;;;;4.25;100.00;67251.44;5013650;28;20054;-89
2022/02/22 01:54:58;;;;;;;30.63;5.47;;;;;;;4.24;100.00;67247.13;5013021;28;20048;-91
2022/02/22 01:57:26;;;;;;;26.55;5.72;;;;;;;4.23;100.00;67249.19;5003331;28;20033;-88
2022/02/22 01:59:54;;;;;;;39.42;6.22;;;;;;;;;;5029533;28;20049;-86
2022/02/22 02:02:20;;;;;;;27.20;5.65;;;;;;;4.24;100.00;67247.13;5005105;28;20471;-86
2022/02/22 02:04:55;;;;;;;25.08;5.20;;;;;;;4.25;100.00;67248.81;5007323;28;20045;-87
2022/02/22 02:07:21;;;;;;;26.60;5.88;;;;;;;4.24;100.00;67252.97;5027678;28;20037;-89
2022/02/22 02:09:50;;;;;;;30.45;5.95;;;;;;;4.27;100.00;67251.06;4994993;28;20120;-88
2022/02/22 02:12:15;;;;;;;29.88;5.25;;;;;;;;;;4975688;28;20092;-89
2022/02/22 02:14:40;;;;;;;25.13;4.32;;;;;;;4.26;100.00;67252.03;4997252;28;20051;-88
2022/02/22 02:17:06;;;;;;;31.63;6.55;;;;;;;4.25;100.00;67251.44;4993025;28;20042;-87
2022/02/22 02:19:31;;;;;;;26.85;5.10;;;;;;;4.23;100.00;67246.56;4995832;28;20042;-90
2022/02/22 02:21:58;;;;;;;22.63;4.15;;;;;;;;;;5052825;28;20398;-85
2022/02/22 02:24:27;;;;;;;28.98;5.75;;;;;;;4.23;100.00;67246.56;5027528;28;20038;-88
2022/02/22 02:26:56;;;;;;;29.00;6.30;;;;;;;4.24;100.00;67250.31;5027618;28;20045;-88
2022/02/22 02:29:27;;;;;;;19.58;3.13;;;;;;;4.23;100.00;67246.56;5048274;28;20045;-91
2022/02/22 02:31:57;;;;;;;33.28;5.32;;;;;;;4.21;100.00;67246.94;5010049;28;20100;-91
2022/02/22 02:34:25;;;;;;;23.60;5.47;;;;;;;4.19;100.00;67247.31;5026146;28;20050;-90
2022/02/22 02:36:54;;;;;;;21.67;4.22;;;;;;;4.16;100.00;67238.66;5029325;28;20091;-88
2022/02/22 02:39:22;;;;;;;22.23;4.35;;;;;;;4.16;100.00;67233.38;5032536;28;20060;-89
2022/02/22 02:41:49;;;;;;;26.33;5.20;;;;;;;4.15;100.00;67240.16;5026207;28;20048;-89
2022/02/22 02:44:18;;;;;;;33.95;6.35;;;;;;;4.13;100.00;67230.00;5031046;28;20671;-90
2022/02/22 02:46:48;;;;;;;26.35;4.72;;;;;;;4.13;100.00;67234.72;5028693;28;20034;-84
2022/02/22 02:49:14;;;;;;;32.05;6.95;;;;;;;4.13;100.00;67234.72;5010234;28;20050;-88
2022/02/22 02:51:42;;;;;;;25.73;5.00;;;;;;;4.11;100.00;67232.44;5002401;28;20127;-89
2022/02/22 02:54:07;;;;;;;31.80;5.53;;;;;;;;;;4988920;28;20122;-90
2022/02/22 02:56:35;;;;;;;22.00;3.97;;;;;;;;;;5008133;28;20132;-94
2022/02/22 02:59:04;;;;;;;27.05;4.60;;;;;;;4.03;100.00;67224.56;5003830;28;20078;-89
2022/02/22 03:01:31;;;;;;;25.90;4.75;;;;;;;4.01;100.00;67221.72;5001222;28;20570;-87
2022/02/22 03:03:57;;;;;;;23.45;5.18;;;;;;;3.98;100.00;67218.34;5005050;28;20086;-84
2022/02/22 03:06:32;;;;;;;31.77;4.88;;;;;;;;;;4991245;28;20038;-93
2022/02/22 03:08:58;;;;;;;29.15;5.38;;;;;;;;;;5018399;28;20058;-87
2022/02/22 03:11:25;;;;;;;25.35;4.85;;;;;;;3.92;100.00;67214.22;5031812;28;20049;-85
2022/02/22 03:13:51;;;;;;;25.75;4.07;;;;;;;3.88;100.00;67207.06;4992784;28;20037;-88
2022/02/22 03:16:18;;;;;;;27.05;4.95;;;;;;;3.85;100.00;67204.22;5008005;28;20487;-87
2022/02/22 03:18:45;;;;;;;23.10;5.50;;;;;;;3.80;100.00;67198.63;5007418;28;20067;-84
2022/02/22 03:21:20;;;;;;;37.17;6.40;;;;;;;3.80;100.00;67203.88;4999464;28;20127;-93
2022/02/22 03:23:45;;;;;;;26.02;5.57;;;;;;;3.76;100.00;67188.81;5028151;28;20508;-86
2022/02/22 03:26:12;;;;;;;27.23;6.00;;;;;;;3.75;100.00;67193.53;5016734;28;20050;-86
2022/02/22 03:28:37;;;;;;;30.15;4.97;;;;;;;3.67;100.00;67183.94;5024467;28;20063;-89
2022/02/22 03:31:04;;;;;;;23.50;4.97;;;;;;;3.67;100.00;67183.94;4995475;28;20336;-89
2022/02/22 03:33:31;;;;;;;25.40;3.53;;;;;;;3.64;100.00;67181.13;5013563;28;20029;-88
2022/02/22 03:35:59;;;;;;;31.77;6.57;;;;;;;3.62;100.00;67178.84;5032415;28;20072;-90
2022/02/22 03:38:27;;;;;;;30.85;5.20;;;;;;;3.55;100.00;67170.97;5017221;28;20068;-87
2022/02/22 03:41:00;;;;;;;35.60;6.90;;;;;;;3.57;100.00;67173.78;5021144;28;20099;-92
2022/02/22 03:43:29;;;;;;;29.67;5.80;;;;;;;3.51;100.00;67167.03;5047249;28;20284;-88
2022/02/22 03:45:55;;;;;;;33.78;6.93;;;;;;;3.49;100.00;67164.75;5008025;28;20122;-84
2022/02/22 03:48:21;;;;;;;27.80;5.70;;;;;;;3.47;100.00;67161.94;5006350;28;20045;-85
2022/02/22 03:50:48;;;;;;;33.58;5.85;;;;;;;3.48;100.00;67158.38;5017922;28;20063;-85
2022/02/22 03:53:16;;;;;;;26.27;4.70;;;;;;;3.43;100.00;67158.00;5012140;28;20056;-89
2022/02/22 03:55:42;;;;;;;34.00;5.72;;;;;;;3.47;100.00;67167.19;5030573;28;20103;-88
2022/02/22 03:58:08;;;;;;;28.27;4.22;;;;;;;3.42;100.00;67156.84;5010448;28;20080;-87
2022/02/22 04:00:35;;;;;;;28.33;4.30;;;;;;;3.40;100.00;67154.63;4995836;28;20499;-92
2022/02/22 04:03:05;;;;;;;29.35;4.90;;;;;;;3.40;100.00;67149.34;5008828;28;20057;-87
2022/02/22 04:05:32;;;;;;;29.45;4.80;;;;;;;3.35;100.00;67149.53;5025362;28;20075;-90
2022/02/22 04:08:04;;;;;;;26.40;5.65;;;;;;;3.34;100.00;67150.47;5005033;28;20056;-85
2022/02/22 04:10:30;;;;;;;26.83;4.03;;;;;;;3.28;100.00;67141.66;5031918;28;20057;-86
2022/02/22 04:13:04;;;;;;;31.80;5.30;;;;;;;3.30;100.00;67149.16;5029606;28;20159;-86
2022/02/22 04:15:37;;;;;;;31.75;5.35;;;;;;;3.28;100.00;67141.06;5026338;28;20053;-92
2022/02/22 04:18:03;;;;;;;16.63;4.25;;;;;;;3.30;100.00;67146.53;5026437;28;20392;-85
2022/02/22 04:20:29;;;;;;;38.25;7.70;;;;;;;;;;5009163;28;20413;-87
2022/02/22 04:23:00;;;;;;;27.10;5.55;;;;;;;;;;5025536;28;20383;-87
2022/02/22 04:25:30;;;;;;;25.88;4.40;;;;;;;3.26;100.00;67138.81;5043365;28;20060;-89
2022/02/22 04:27:57;;;;;;;29.95;4.68;;;;;;;3.26;100.00;67142.00;5011755;28;20490;-86
2022/02/22 04:30:24;;;;;;;26.85;5.65;;;;;;;3.27;100.00;67143.13;5037560;28;20050;-85
2022/02/22 04:32:50;;;;;;;28.40;5.00;;;;;;;3.21;100.00;67136.38;4992410;28;20050;-92
2022/02/22 04:35:16;;;;;;;35.97;5.40;;;;;;;3.21;100.00;67133.75;5025414;28;20139;-87
2022/02/22 04:37:41;;;;;;;22.52;4.93;;;;;;;;;;5017996;28;20037;-88
2022/02/22 04:40:07;;;;;;;31.38;4.43;;;;;;;;;;5009680;28;20049;-86
2022/02/22 04:42:32;;;;;;;27.88;5.32;;;;;;;3.18;100.00;67130.34;5034145;28;20049;-90
2022/02/22 04:44:59;;;;;;;24.27;4.90;;;;;;;;;;5025722;28;20053;-86
2022/02/22 04:47:33;;;;;;;34.70;7.30;;;;;;;3.18;100.00;67133.00;5016885;28;20049;-89
2022/02/22 04:50:00;;;;;;;28.40;5.45;;;;;;;3.17;100.00;67129.25;5037838;28;20049;-88
2022/02/22 04:52:27;;;;;;;33.83;6.55;;;;;;;;;;5026052;28;20403;-86
2022/02/22 04:55:06;;;;;;;29.88;4.43;;;;;;;;;;5012433;28;20049;-87
2022/02/22 04:57:37;;;;;;;24.02;4.10;;;;;;;3.11;100.00;67125.66;5030075;28;20437;-86
2022/02/22 05:00:12;;;;;;;30.83;5.55;;;;;;;3.11;100.00;67125.09;5047508;28;20123;-87
2022/02/22 05:02:39;;;;;;;25.30;5.25;;;;;;;3.07;100.00;67121.16;5029623;28;20061;-89
2022/02/22 05:05:05;;;;;;;28.23;5.05;;;;;;;3.07;100.00;67123.78;5026239;28;20041;-89
2022/02/22 05:07:32;;;;;;;25.52;3.97;;;;;;;3.07;100.00;67118.50;5014453;28;20049;-87
2022/02/22 05:09:58;;;;;;;33.22;7.30;;;;;;;3.07;100.00;67118.50;5036983;28;20729;-85
2022/02/22 05:12:30;;;;;;;28.92;4.22;;;;;;;3.05;100.00;67111.03;5009638;28;20053;-91
2022/02/22 05:15:05;;;;;;;24.70;5.60;;;;;;;3.06;100.00;67116.84;5039719;28;20097;-90
2022/02/22 05:17:32;;;;;;;27.35;4.88;;;;;;;3.05;100.00;67115.69;5013252;28;20106;-89
2022/02/22 05:20:15;;;;;;;29.67;5.40;;;;;;;3.05;100.00;67115.69;5033260;28;20119;-89
2022/02/22 05:22:43;;;;;;;19.58;5.13;;;;;;;3.02;100.00;67112.91;5017450;28;20045;-89
2022/02/22 05:25:10;;;;;;;28.58;5.20;;;;;;;2.99;100.00;67111.56;5030326;28;20493;-86
2022/02/22 05:27:35;;;;;;;26.48;4.47;;;;;;;3.02;100.00;67114.94;5047203;28;20122;-89
2022/02/22 05:30:01;;;;;;;29.52;6.18;;;;;;;;;;5041179;28;20076;-86
2022/02/22 05:32:27;;;;;;;26.25;4.55;;;;;;;2.96;100.00;67105.56;5024957;28;20133;-89
2022/02/22 05:34:52;;;;;;;33.15;4.53;;;;;;;2.94;100.00;67103.88;5028217;28;20091;-89
2022/02/22 05:37:17;;;;;;;31.85;5.60;;;;;;;2.88;100.00;67099.75;5002998;28;20053;-86
2022/02/22 05:39:43;;;;;;;35.08;6.57;;;;;;;2.87;100.00;67101.78;5033012;28;20038;-89
2022/02/22 05:42:08;;;;;;;23.92;5.22;;;;;;;2.82;100.00;67092.97;5025760;28;20100;-89
2022/02/22 05:44:34;;;;;;;26.48;5.05;;;;;;;2.82;100.00;67090.31;5035767;28;20056;-92
2022/02/22 05:46:59;;;;;;;30.85;5.93;;;;;;;2.78;100.00;67086.38;5029570;28;20044;-88
2022/02/22 05:49:25;;;;;;;29.15;4.82;;;;;;;2.75;100.00;67083.00;5040826;28;20048;-86
2022/02/22 05:51:53;;;;;;;28.90;6.80;;;;;;;2.80;100.00;67088.09;5036751;28;20045;-89
2022/02/22 05:54:19;;;;;;;27.98;4.43;;;;;;;2.78;100.00;67086.38;5027347;28;20037;-90
2022/02/22 05:56:44;;;;;;;30.48;6.45;;;;;;;2.82;100.00;67092.97;5034448;28;20034;-86
2022/02/22 05:59:11;;;;;;;26.58;5.53;;;;;;;2.74;100.00;67081.34;5034267;28;20056;-87
2022/02/22 06:01:38;;;;;;;31.90;5.40;;;;;;;2.70;100.00;67080.56;5039640;28;20120;-87
2022/02/22 06:04:04;;;;;;;27.08;6.47;;;;;;;2.72;100.00;67079.63;5044229;28;20091;-87
2022/02/22 06:06:30;;;;;;;31.08;6.43;;;;;;;2.73;100.00;67072.88;5028369;28;20037;-88
2022/02/22 06:08:55;;;;;;;26.00;4.72;;;;;;;2.72;100.00;67082.25;5028408;28;20042;-86
2022/02/22 06:11:21;;;;;;;42.28;7.60;;;;;;;2.75;100.00;67083.00;5022475;28;20049;-90
2022/02/22 06:13:46;;;;;;;35.20;7.45;;;;;;;2.76;100.00;67084.13;4998196;28;20160;-88
2022/02/22 06:16:12;;;;;;;34.30;5.90;;;;;;;2.72;100.00;67074.38;5016167;28;20069;-88
2022/02/22 06:18:37;;;;;;;32.95;6.57;;;;;;;2.75;100.00;67077.75;5025854;28;20099;-88
2022/02/22 06:21:02;;;;;;;38.63;4.53;;;;;;;2.71;100.00;67078.50;5036091;28;20098;-87
2022/02/22 06:23:28;;;;;;;34.00;6.75;;;;;;;2.75;100.00;67083.00;5007986;28;20072;-90
2022/02/22 06:25:53;;;;;;;24.77;5.00;;;;;;;;;;5006629;28;20068;-89
2022/02/22 06:28:19;;;;;;;31.42;7.18;;;;;;;2.75;100.00;67088.25;5044302;28;20099;-87
2022/02/22 06:30:44;;;;;;;29.45;5.15;;;;;;;2.74;100.00;67081.88;5002107;28;20040;-90
2022/02/22 06:33:10;;;;;;;29.40;6.35;;;;;;;2.72;100.00;67079.63;5030083;28;20096;-88
2022/02/22 06:35:35;;;;;;;30.77;6.07;;;;;;;2.73;100.00;67080.75;4986109;28;20041;-85
2022/02/22 06:38:00;;;;;;;32.85;8.85;;;;;;;2.76;100.00;67086.19;5027469;28;20099;-87
2022/02/22 06:40:27;;;;;;;27.90;5.85;;;;;;;2.73;100.00;67086.00;5029770;28;20398;-87
2022/02/22 06:42:53;;;;;;;35.83;6.35;;;;;;;2.72;100.00;67082.25;5023377;28;20099;-86
2022/02/22 06:45:18;;;;;;;29.35;6.05;;;;;;;2.74;100.00;67081.88;5013225;28;20136;-85
2022/02/22 06:47:43;;;;;;;30.20;5.57;;;;;;;2.77;100.00;67085.28;4996289;28;20454;-91
2022/02/22 06:50:11;;;;;;;27.65;4.95;;;;;;;2.77;100.00;67085.28;4986995;28;20041;-87
2022/02/22 06:52:39;;;;;;;29.48;4.95;;;;;;;2.79;100.00;67089.56;5008619;28;20402;-88
2022/02/22 06:55:05;;;;;;;25.73;4.72;;;;;;;2.80;100.00;67088.09;5037477;28;20038;-89
2022/02/22 06:57:31;;;;;;;21.45;4.63;;;;;;;;;;5037579;28;20049;-85
2022/02/22 06:59:56;;;;;;;27.45;4.70;;;;;;;2.82;100.00;67093.53;5026779;28;20056;-85
2022/02/22 07:02:22;;;;;;;20.80;6.00;;;;;;;;;;5027562;28;20045;-85
2022/02/22 07:04:47;;;;;;;25.80;4.32;;;;;;;2.84;100.00;67093.16;5029403;28;20069;-88
2022/02/22 07:07:12;;;;;;;23.23;5.20;;;;;;;2.83;100.00;67092.03;5043175;28;20056;-88
2022/02/22 07:09:39;;;;;;;28.45;6.53;;;;;;;2.85;100.00;67094.28;5044286;28;20485;-89
2022/02/22 07:12:04;;;;;;;31.00;5.65;;;;;;;;;;5043617;28;20049;-85
2022/02/22 07:14:29;;;;;;;25.15;5.07;;;;;;;2.82;100.00;67090.31;5045004;28;20041;-90
2022/02/22 07:16:56;;;;;;;34.50;7.60;;;;;;;2.86;100.00;67095.41;5037384;28;20096;-90
2022/02/22 07:19:21;;;;;;;27.02;7.28;;;;;;;;;;5037500;28;20476;-87
2022/02/22 07:21:47;;;;;;;29.13;5.43;;;;;;;2.82;100.00;67093.53;5037622;28;20098;-92
2022/02/22 07:24:12;;;;;;;31.25;7.20;;;;;;;2.85;100.00;67094.28;5033259;28;20045;-88
2022/02/22 07:26:37;;;;;;;32.25;6.97;;;;;;;2.80;100.00;67088.09;5014878;28;20045;-85
2022/02/22 07:29:03;;;;;;;29.60;5.25;;;;;;;2.80;100.00;67093.34;5030547;28;20033;-90
2022/02/22 07:31:28;;;;;;;34.00;7.57;;;;;;;2.80;100.00;67083.41;5037459;28;20049;-86
2022/02/22 07:33:55;;;;;;;30.80;7.38;;;;;;;;;;5028006;28;20049;-85
2022/02/22 07:36:20;;;;;;;39.58;8.35;;;;;;;2.81;100.00;67089.22;5028060;28;20038;-86
2022/02/22 07:38:48;;;;;;;26.95;6.57;;;;;;;2.84;100.00;67093.16;5030491;28;20096;-86
2022/02/22 07:41:23;;;;;;;32.90;7.03;;;;;;;2.87;100.00;67096.53;4996662;28;20038;-86
2022/02/22 07:43:53;;;;;;;33.63;6.63;;;;;;;2.89;100.00;67098.22;5022544;28;20041;-88
2022/02/22 07:46:19;;;;;;;28.92;5.53;;;;;;;2.89;100.00;67103.50;5004003;28;20041;-86
2022/02/22 07:48:47;;;;;;;35.33;6.50;;;;;;;2.88;100.00;67097.66;4997146;28;20065;-85
2022/02/22 07:51:18;;;;;;;27.33;5.80;;;;;;;;;;5027460;28;20501;-90
2022/02/22 07:53:48;;;;;;;25.80;6.18;;;;;;;2.94;100.00;67099.19;5029493;28;20056;-91
2022/02/22 07:56:15;;;;;;;39.00;8.63;;;;;;;2.99;100.00;67112.13;5026320;28;20132;-84
2022/02/22 07:58:41;;;;;;;39.78;8.18;;;;;;;3.01;100.00;67111.75;5013822;28;20073;-89
2022/02/22 08:01:12;;;;;;;26.15;6.40;;;;;;;3.04;100.00;67114.56;5032620;28;20069;-86
2022/02/22 08:03:44;;;;;;;38.22;7.90;;;;;;;3.09;100.00;67123.41;4996604;28;20157;-88
2022/02/22 08:06:13;;;;;;;28.52;6.32;;;;;;;;;;5027401;28;20113;-91
2022/02/22 08:08:44;;;;;;;;;;;;;;;3.20;100.00;67135.25;5025991;28;20049;-88
2022/02/22 08:11:18;;;;;;;31.02;5.85;;;;;;;;;;5026974;28;19922;-89
2022/02/22 08:13:44;;;;;;;31.25;6.50;;;;;;;3.29;100.00;67142.78;5011240;28;20053;-85
2022/02/22 08:16:10;;;;;;;35.83;8.60;;;;;;;3.38;100.00;67152.91;5037279;28;20394;-88
2022/02/22 08:18:43;;;;;;;32.40;6.72;;;;;;;3.48;100.00;67163.06;4989100;28;20953;-87
2022/02/22 08:21:09;;;;;;;33.85;7.65;;;;;;;3.55;100.00;67174.16;4993625;28;20046;-86
2022/02/22 08:23:41;;;;;;;31.48;7.88;;;;;;;;;;4986348;28;20128;-87
2022/02/22 08:26:08;;;;;;;35.28;6.75;;;;;;;3.73;100.00;67185.44;5025860;28;20060;-85
2022/02/22 08:28:34;;;;;;;19.98;5.03;;;;;;;3.77;100.00;67190.53;5034280;28;20076;-86
2022/02/22 08:31:01;;;;;;;26.95;7.50;;;;;;;3.84;100.00;67205.75;5017229;28;20054;-88
2022/02/22 08:33:30;;;;;;;27.73;7.22;;;;;;;3.90;100.00;67211.97;5015078;28;20045;-85
2022/02/22 08:35:57;;;;;;;23.35;5.63;;;;;;;3.97;100.00;67217.22;5025896;28;20499;-90
2022/02/22 08:38:23;;;;;;;30.70;7.32;;;;;;;4.01;100.00;67222.28;5036947;28;20072;-88
2022/02/22 08:40:49;;;;;;;31.63;6.70;;;;;;;4.07;100.00;67229.06;5034606;28;20053;-84
2022/02/22 08:43:16;;;;;;;26.25;6.72;;;;;;;;;;4999497;28;20033;-88
2022/02/22 08:45:43;;;;;;;25.08;5.53;;;;;;;;;;5032596;28;20147;-86
2022/02/22 08:48:13;;;;;;;28.25;6.65;;;;;;;4.37;100.00;67263.88;5047472;28;20060;-87
2022/02/22 08:50:42;;;;;;;25.88;6.30;;;;;;;4.41;100.00;67268.38;4995686;28;20060;-89
2022/02/22 08:53:14;;;;;;;18.92;4.25;;;;;;;4.50;100.00;67276.47;5010854;28;20041;-87
2022/02/22 08:55:40;;;;;;;13.90;4.72;;;;;;;4.56;100.00;67277.41;5044229;28;20625;-87
2022/02/22 08:58:07;;;;;;;21.25;4.55;;;;;;;4.62;100.00;67288.91;5032048;28;20041;-87
2022/02/22 09:00:37;;;;;;;18.35;5.03;;;;;;;4.67;100.00;67295.09;4990884;28;20034;-87
2022/02/22 09:03:16;;;;;;;21.52;4.88;;;;;;;4.69;100.00;67297.38;5030781;28;20116;-88
2022/02/22 09:05:51;;;;;;;25.08;4.65;;;;;;;4.78;100.00;67306.41;5037763;28;20180;-87
2022/02/22 09:08:19;;;;;;;23.35;5.65;;;;;;;;;;5021182;28;20041;-86
2022/02/22 09:10:45;;;;;;;24.80;5.88;;;;;;;4.90;100.00;67315.25;5048880;28;20053;-85
2022/02/22 09:13:12;;;;;;;16.05;5.00;;;;;;;4.94;100.00;67324.47;5011186;28;20057;-88
2022/02/22 09:15:38;;;;;;;26.77;5.57;;;;;;;;;;5019941;28;20046;-87
2022/02/22 09:18:04;;;;;;;21.98;5.30;;;;;;;;;;5028461;28;20046;-85
2022/02/22 09:20:40;;;;;;;23.67;5.50;;;;;;;5.17;100.00;67350.44;5041195;28;20049;-88
2022/02/22 09:23:07;;;;;;;22.60;4.35;;;;;;;;;;5029886;28;20103;-90
2022/02/22 09:25:35;;;;;;;24.58;6.28;;;;;;;5.29;100.00;67362.88;5015589;28;20561;-85
2022/02/22 09:28:07;;;;;;;18.38;4.20;;;;;;;5.33;100.00;67367.94;5011119;28;20132;-85
2022/02/22 09:30:46;;;;;;;19.77;5.15;;;;;;;5.36;100.00;67370.78;4992450;28;20046;-90
2022/02/22 09:33:20;;;;;;;24.95;5.43;;;;;;;5.41;100.00;67371.16;5022726;28;20049;-89
2022/02/22 09:35:46;;;;;;;17.75;4.88;;;;;;;;;;5016119;28;20046;-88
2022/02/22 09:38:13;;;;;;;13.00;3.38;;;;;;;5.46;100.00;67382.06;5026957;28;20105;-89
2022/02/22 09:40:46;;;;;;;20.45;4.47;;;;;;;5.56;100.00;67396.00;5027465;28;20046;-84
2022/02/22 09:43:13;;;;;;;22.75;4.45;;;;;;;5.59;100.00;67396.75;5034936;28;20049;-87
2022/02/22 09:45:40;;;;;;;30.35;5.15;;;;;;;;;;4995817;28;20418;-85
2022/02/22 09:48:06;;;;;;;17.23;4.72;;;;;;;5.70;100.00;67411.28;5028929;28;20045;-89
2022/02/22 09:50:35;;;;;;;20.63;4.50;;;;;;;5.76;100.00;67410.13;5013595;28;20108;-90
2022/02/22 09:53:01;;;;;;;18.50;3.90;;;;;;;;;;4998482;28;20045;-87
2022/02/22 09:55:30;;;;;;;14.25;3.58;;;;;;;5.86;100.00;67420.88;5031154;28;20053;-88
2022/02/22 09:57:56;;;;;;;18.33;5.18;;;;;;;;;;5047496;28;20189;-88
2022/02/22 10:00:31;;;;;;;23.70;5.68;;;;;;;5.89;100.00;67429.53;5022484;28;20049;-88
2022/02/22 10:02:56;;;;;;;17.42;4.95;;;;;;;;;;4995450;28;20069;-84
2022/02/22 10:05:22;;;;;;;19.17;4.07;;;;;;;;;;5022693;28;20566;-86
2022/02/22 10:07:51;;;;;;;17.52;4.18;;;;;;;5.91;100.00;67431.81;5022877;28;20138;-85
2022/02/22 10:10:17;;;;;;;18.92;5.15;;;;;;;;;;5030360;28;20064;-86
2022/02/22 10:12:55;;;;;;;19.27;5.15;;;;;;;;;;5017561;28;20049;-87
2022/02/22 10:15:23;;;;;;;18.40;4.00;;;;;;;;;;5018796;28;20053;-89
2022/02/22 10:17:50;;;;;;;30.55;4.53;;;;;;;;;;5001758;28;20440;-84
2022/02/22 10:20:18;;;;;;;21.65;5.07;;;;;;;5.92;100.00;67432.38;5006712;28;20038;-87
2022/02/22 10:22:47;;;;;;;17.42;5.25;;;;;;;;;;5014525;28;21624;-88
2022/02/22 10:25:14;;;;;;;21.30;5.47;;;;;;;;;;5036386;28;20100;-89
2022/02/22 10:27:56;;;;;;;23.25;5.30;;;;;;;6.02;100.00;67443.69;5025892;28;20045;-89
2022/02/22 10:30:40;;;;;;;16.67;4.30;;;;;;;;;;5037464;28;20029;-90
2022/02/22 10:33:26;;;;;;;21.98;5.75;;;;;;;6.03;100.00;67444.81;5037161;28;20497;-87
2022/02/22 10:36:04;;;;;;;18.50;5.35;;;;;;;6.02;100.00;67446.91;5028577;28;20478;-86
2022/02/22 10:38:36;;;;;;;18.83;5.68;;;;;;;6.05;100.00;67441.81;5015642;28;20045;-86
2022/02/22 10:41:14;;;;;;;22.77;5.47;;;;;;;6.09;100.00;67452.16;5023370;28;20053;-87
2022/02/22 10:43:41;;;;;;;19.53;5.80;;;;;;;;;;4996703;28;20049;-91
2022/02/22 10:46:09;;;;;;;24.98;5.10;;;;;;;;;;5010941;28;20654;-87
2022/02/22 10:48:39;;;;;;;27.40;6.23;;;;;;;;;;5006684;28;20540;-85
2022/02/22 10:51:11;;;;;;;20.83;5.53;;;;;;;6.14;100.00;67456.69;5025060;28;20330;-85
2022/02/22 10:53:57;;;;;;;23.30;6.60;;;;;;;6.16;100.00;67459.53;5021338;28;20536;-83
2022/02/22 10:56:25;;;;;;;16.88;5.93;;;;;;;6.17;100.00;67460.09;5004075;28;20046;-86
2022/02/22 10:59:04;;;;;;;17.23;5.20;;;;;;;;;;5003282;28;20034;-86
2022/02/22 11:01:31;;;;;;;18.10;4.53;;;;;;;6.24;100.00;67468.56;5022181;28;20049;-88
2022/02/22 11:03:58;;;;;;;21.70;5.90;;;;;;;6.28;100.00;67473.09;5022016;28;20046;-87
2022/02/22 11:06:28;;;;;;;20.98;5.35;;;;;;;6.31;100.00;67475.91;5028913;28;20079;-87
2022/02/22 11:08:57;;;;;;;21.50;5.80;;;;;;;;;;5036047;28;20045;-87
2022/02/22 11:11:36;;;;;;;25.03;5.77;;;;;;;6.40;100.00;67486.09;5030198;28;20057;-88
2022/02/22 11:14:07;;;;;;;18.38;4.63;;;;;;;6.40;100.00;67486.09;5041296;28;20377;-87
2022/02/22 11:16:39;;;;;;;31.02;5.72;;;;;;;;;;4991383;28;20482;-87
2022/02/22 11:19:11;;;;;;;21.42;5.45;;;;;;;;;;5027056;28;20524;-89
2022/02/22 11:21:36;;;;;;;24.30;5.75;;;;;;;;;;5037413;28;20490;-87
2022/02/22 11:24:09;;;;;;;23.80;5.22;;;;;;;6.43;100.00;67489.47;5023094;28;20103;-87
2022/02/22 11:26:59;;;;;;;19.80;5.35;;;;;;;6.43;100.00;67489.47;5024842;28;20037;-88
2022/02/22 11:29:29;;;;;;;19.55;5.15;;;;;;;6.35;100.00;67482.50;5021736;28;20141;-89
2022/02/22 11:32:01;;;;;;;25.88;6.30;;;;;;;;;;5036238;28;20042;-86
2022/02/22 11:34:32;;;;;;;19.17;5.43;;;;;;;6.40;100.00;67480.81;5023998;28;20100;-88
2022/02/22 11:37:02;;;;;;;21.10;5.32;;;;;;;6.40;100.00;67480.81;5026268;28;20076;-87
2022/02/22 11:39:43;;;;;;;20.10;5.13;;;;;;;6.39;100.00;67479.69;5030912;28;20076;-85
2022/02/22 11:42:23;;;;;;;22.80;5.45;;;;;;;6.30;100.00;67466.84;5018520;28;20046;-88
2022/02/22 11:44:58;;;;;;;26.33;6.57;;;;;;;6.31;100.00;67468.53;5007493;28;20092;-87
2022/02/22 11:47:25;;;;;;;17.65;5.85;;;;;;;6.31;100.00;67478.56;5030155;28;20045;-88
2022/02/22 11:49:53;;;;;;;25.95;5.88;;;;;;;6.33;100.00;67478.19;5019165;28;20499;-86
2022/02/22 11:52:50;;;;;;;27.57;6.50;;;;;;;;;;5025360;28;20150;-85
2022/02/22 11:55:19;;;;;;;19.70;5.40;;;;;;;6.31;100.00;67476.47;5020777;28;20045;-87
2022/02/22 11:57:48;;;;;;;27.35;6.75;;;;;;;6.30;100.00;67477.41;5011311;28;20045;-88
2022/02/22 12:00:18;;;;;;;21.58;6.10;;;;;;;6.38;100.00;67483.81;5020869;28;20289;-86
2022/02/22 12:02:46;;;;;;;26.30;7.93;;;;;;;6.43;100.00;67484.19;5011515;28;20049;-85
2022/02/22 12:05:29;;;;;;;26.63;5.97;;;;;;;6.40;100.00;67486.09;5011637;28;20088;-89